Time;durP1;ratioP1;P1;durP2;ratioP2;P2;SDS_P1;SDS_P2;PMS_P1;PMS_P2;Temp;Humidity;BMP_temperature;BMP_pressure;BME280_temperature;BME280_humidity;BME280_pressure;Samples;Min_cycle;Max_cycle;Signal;HPM_P1;HPM_P2
2021/10/10 00:01:11;;;;;;;25.80;17.83;;;3.40;99.90;;;;;;5068117;28;20645;-53
2021/10/10 00:03:37;;;;;;;21.40;17.00;;;3.40;99.90;;;;;;5070627;28;20269;-54
2021/10/10 00:06:02;;;;;;;21.90;16.77;;;3.40;99.90;;;;;;5068375;28;20182;-46
2021/10/10 00:08:28;;;;;;;21.57;17.50;;;3.40;99.90;;;;;;5066755;28;21071;-51
2021/10/10 00:10:53;;;;;;;23.40;18.37;;;3.40;99.90;;;;;;5067050;28;20565;-50
2021/10/10 00:13:19;;;;;;;21.17;16.23;;;3.40;99.90;;;;;;5080721;28;20185;-52
2021/10/10 00:15:45;;;;;;;20.83;16.43;;;3.30;99.90;;;;;;5086059;28;20177;-51
2021/10/10 00:18:12;;;;;;;21.27;15.87;;;3.30;99.90;;;;;;5066008;28;20178;-47
2021/10/10 00:20:38;;;;;;;24.30;16.45;;;3.30;99.90;;;;;;5067871;28;20181;-52
2021/10/10 00:23:04;;;;;;;22.87;17.17;;;3.20;99.90;;;;;;5081518;28;20661;-48
2021/10/10 00:25:29;;;;;;;21.07;16.47;;;3.20;99.90;;;;;;5074059;28;20217;-51
2021/10/10 00:27:56;;;;;;;21.87;17.10;;;3.10;99.90;;;;;;5077299;28;20518;-52
2021/10/10 00:30:22;;;;;;;18.00;15.20;;;3.10;99.90;;;;;;5067049;28;20628;-52
2021/10/10 00:32:48;;;;;;;21.92;15.90;;;3.10;99.90;;;;;;5069942;28;20239;-54
2021/10/10 00:35:14;;;;;;;21.40;15.67;;;3.00;99.90;;;;;;5070101;28;20763;-52
2021/10/10 00:37:41;;;;;;;21.25;17.00;;;3.00;99.90;;;;;;5070105;28;20501;-51
2021/10/10 00:40:08;;;;;;;19.58;15.77;;;3.00;99.90;;;;;;5084735;28;21013;-50
2021/10/10 00:42:33;;;;;;;21.02;15.70;;;3.00;99.90;;;;;;5086232;28;20185;-51
2021/10/10 00:44:59;;;;;;;21.03;15.23;;;3.00;99.90;;;;;;5070222;28;20540;-50
2021/10/10 00:47:24;;;;;;;21.27;16.90;;;3.00;99.90;;;;;;5069068;28;20618;-49
2021/10/10 00:49:50;;;;;;;19.70;15.97;;;3.00;99.90;;;;;;5071867;28;20189;-51
2021/10/10 00:52:17;;;;;;;21.40;16.10;;;3.00;99.90;;;;;;5087130;28;20558;-49
2021/10/10 00:54:46;;;;;;;23.35;16.88;;;3.00;99.90;;;;;;5069486;28;20196;-51
2021/10/10 00:57:12;;;;;;;22.80;16.27;;;3.00;99.90;;;;;;5068607;28;20264;-51
2021/10/10 00:59:41;;;;;;;20.02;15.90;;;2.90;99.90;;;;;;5070632;28;20191;-48
2021/10/10 01:02:07;;;;;;;24.35;15.95;;;2.90;99.90;;;;;;5082131;28;20189;-53
2021/10/10 01:04:32;;;;;;;24.03;16.90;;;2.90;99.90;;;;;;5072123;28;20189;-49
2021/10/10 01:06:58;;;;;;;22.87;15.73;;;2.90;99.90;;;;;;5083940;28;20205;-53
2021/10/10 01:09:24;;;;;;;23.57;15.50;;;2.90;99.90;;;;;;5069248;28;20683;-51
2021/10/10 01:11:50;;;;;;;19.98;15.55;;;2.80;99.90;;;;;;5086341;28;20214;-50
2021/10/10 01:14:16;;;;;;;19.47;15.50;;;2.80;99.90;;;;;;5071321;28;20269;-51
2021/10/10 01:16:41;;;;;;;20.93;15.90;;;2.80;99.90;;;;;;5087150;28;20177;-50
2021/10/10 01:19:07;;;;;;;23.13;17.03;;;2.80;99.90;;;;;;5071139;28;20601;-50
2021/10/10 01:21:33;;;;;;;19.52;15.80;;;2.70;99.90;;;;;;5089787;28;20274;-50
2021/10/10 01:23:59;;;;;;;22.33;15.20;;;2.60;99.90;;;;;;5067146;28;20284;-52
2021/10/10 01:26:25;;;;;;;21.60;16.52;;;2.60;99.90;;;;;;5069818;28;20596;-53
2021/10/10 01:28:51;;;;;;;24.73;15.40;;;2.60;99.90;;;;;;5064901;28;20227;-49
2021/10/10 01:31:16;;;;;;;21.03;16.50;;;2.60;99.90;;;;;;5071052;28;20185;-54
2021/10/10 01:33:45;;;;;;;19.13;15.40;;;2.50;99.90;;;;;;5068139;28;20182;-50
2021/10/10 01:36:12;;;;;;;19.83;14.70;;;2.50;99.90;;;;;;5068099;28;20654;-46
2021/10/10 01:38:38;;;;;;;19.15;15.30;;;2.50;99.90;;;;;;5065491;28;20675;-51
2021/10/10 01:41:03;;;;;;;19.97;15.57;;;2.50;99.90;;;;;;5069245;28;20201;-48
2021/10/10 01:43:29;;;;;;;21.33;15.40;;;2.50;99.90;;;;;;5068533;28;20570;-50
2021/10/10 01:45:54;;;;;;;20.37;15.00;;;2.50;99.90;;;;;;5068296;28;20270;-48
2021/10/10 01:48:20;;;;;;;21.33;16.00;;;2.40;99.90;;;;;;5066491;28;20201;-53
2021/10/10 01:50:46;;;;;;;23.30;15.77;;;2.40;99.90;;;;;;5069523;28;20189;-48
2021/10/10 01:53:11;;;;;;;21.40;15.80;;;2.40;99.90;;;;;;5078020;28;20260;-49
2021/10/10 01:55:37;;;;;;;18.77;14.73;;;2.40;99.90;;;;;;5068713;28;20174;-52
2021/10/10 01:58:02;;;;;;;21.00;16.17;;;2.40;99.90;;;;;;5068252;28;20260;-50
2021/10/10 02:00:28;;;;;;;23.90;16.30;;;2.30;99.90;;;;;;5068160;28;20735;-50
2021/10/10 02:02:54;;;;;;;19.90;15.73;;;2.30;99.90;;;;;;5068618;28;20182;-47
2021/10/10 02:05:19;;;;;;;19.67;15.17;;;2.30;99.90;;;;;;5068596;28;20185;-49
2021/10/10 02:07:45;;;;;;;18.83;14.83;;;2.20;99.90;;;;;;5065737;28;20189;-51
2021/10/10 02:10:11;;;;;;;22.10;15.70;;;2.20;99.90;;;;;;5069323;28;20258;-53
2021/10/10 02:12:37;;;;;;;21.70;16.70;;;2.20;99.90;;;;;;5070864;28;20177;-51
2021/10/10 02:15:07;;;;;;;20.50;14.48;;;2.10;99.90;;;;;;5068854;28;20205;-53
2021/10/10 02:17:33;;;;;;;18.52;15.23;;;2.10;99.90;;;;;;5088183;28;20177;-51
2021/10/10 02:19:58;;;;;;;19.00;15.00;;;2.10;99.90;;;;;;5070094;28;20713;-48
2021/10/10 02:22:25;;;;;;;23.00;16.33;;;2.00;99.90;;;;;;5070928;28;20204;-49
2021/10/10 02:24:51;;;;;;;21.45;16.20;;;2.00;99.90;;;;;;5075520;28;20197;-48
2021/10/10 02:27:16;;;;;;;21.93;15.93;;;2.00;99.90;;;;;;5059343;28;20292;-51
2021/10/10 02:29:42;;;;;;;23.60;15.40;;;2.00;99.90;;;;;;5069246;28;20178;-51
2021/10/10 02:32:07;;;;;;;22.30;15.87;;;2.00;99.90;;;;;;5070727;28;20186;-53
2021/10/10 02:34:33;;;;;;;19.50;15.57;;;2.00;99.90;;;;;;5065843;28;20838;-48
2021/10/10 02:36:59;;;;;;;21.03;16.00;;;2.00;99.90;;;;;;5068914;28;20189;-53
2021/10/10 02:39:24;;;;;;;23.50;15.97;;;2.00;99.90;;;;;;5085220;28;20176;-50
2021/10/10 02:41:50;;;;;;;22.50;17.17;;;2.00;99.90;;;;;;5083411;28;20176;-51
2021/10/10 02:44:15;;;;;;;19.80;16.50;;;2.00;99.90;;;;;;5088044;28;20232;-49
2021/10/10 02:46:41;;;;;;;23.47;16.20;;;2.00;99.90;;;;;;5077158;28;20184;-50
2021/10/10 02:49:07;;;;;;;18.90;15.53;;;2.00;99.90;;;;;;5074573;28;20182;-46
2021/10/10 02:51:32;;;;;;;20.30;16.03;;;1.90;99.90;;;;;;5072637;28;20170;-52
2021/10/10 02:53:58;;;;;;;21.87;16.70;;;2.00;99.90;;;;;;5083968;28;20897;-50
2021/10/10 02:56:24;;;;;;;19.63;15.10;;;1.90;99.90;;;;;;5081398;28;20169;-47
2021/10/10 02:58:50;;;;;;;25.50;17.60;;;1.90;99.90;;;;;;5083779;28;21058;-51
2021/10/10 03:01:15;;;;;;;21.40;16.87;;;1.90;99.90;;;;;;5083389;28;20184;-51
2021/10/10 03:03:41;;;;;;;21.13;15.87;;;1.80;99.90;;;;;;5065303;28;20201;-50
2021/10/10 03:06:07;;;;;;;21.60;15.80;;;1.80;99.90;;;;;;5068473;28;20182;-46
2021/10/10 03:08:34;;;;;;;21.42;16.23;;;1.80;99.90;;;;;;5071971;28;20575;-50
2021/10/10 03:11:00;;;;;;;24.80;16.40;;;1.70;99.90;;;;;;5072314;28;20620;-49
2021/10/10 03:13:25;;;;;;;22.10;16.13;;;1.70;99.90;;;;;;5066022;28;20236;-49
2021/10/10 03:15:51;;;;;;;19.83;16.20;;;1.70;99.90;;;;;;5066259;28;20432;-49
2021/10/10 03:18:17;;;;;;;23.20;15.63;;;1.60;99.90;;;;;;5072452;28;20209;-49
2021/10/10 03:20:42;;;;;;;22.10;17.13;;;1.60;99.90;;;;;;5070251;28;20178;-46
2021/10/10 03:23:08;;;;;;;22.63;15.80;;;1.60;99.90;;;;;;5067284;28;20190;-52
2021/10/10 03:25:34;;;;;;;23.17;16.57;;;1.60;99.90;;;;;;5066905;28;20185;-46
2021/10/10 03:27:59;;;;;;;21.60;15.53;;;1.60;99.90;;;;;;5079887;28;20975;-48
2021/10/10 03:30:25;;;;;;;20.07;15.80;;;1.50;99.90;;;;;;5079547;28;20178;-49
2021/10/10 03:32:50;;;;;;;18.47;14.37;;;1.50;99.90;;;;;;5070063;28;20213;-47
2021/10/10 03:35:16;;;;;;;22.43;16.53;;;1.50;99.90;;;;;;5068419;28;20177;-49
2021/10/10 03:37:41;;;;;;;21.47;15.40;;;1.40;99.90;;;;;;5077190;28;20174;-54
2021/10/10 03:40:10;;;;;;;18.57;15.30;;;1.40;99.90;;;;;;5083300;28;20691;-51
2021/10/10 03:42:36;;;;;;;23.33;15.52;;;1.40;99.90;;;;;;5077859;28;20178;-47
2021/10/10 03:45:02;;;;;;;22.33;16.63;;;1.30;99.90;;;;;;5070761;28;20228;-49
2021/10/10 03:47:28;;;;;;;22.92;16.70;;;1.40;99.90;;;;;;5070091;28;20209;-48
2021/10/10 03:49:53;;;;;;;21.67;15.60;;;1.30;99.90;;;;;;5070124;28;20181;-49
2021/10/10 03:52:19;;;;;;;24.90;16.17;;;1.30;99.90;;;;;;5067628;28;20239;-51
2021/10/10 03:57:29;;;;;;;19.00;15.80;;;1.30;99.90;;;;;;5071575;28;20297;-47
2021/10/10 04:00:00;;;;;;;20.07;15.77;;;1.20;99.90;;;;;;5068535;28;20188;-47
2021/10/10 04:02:26;;;;;;;23.88;16.60;;;1.20;99.90;;;;;;5091741;28;20284;-47
2021/10/10 04:04:52;;;;;;;21.60;16.13;;;1.20;99.90;;;;;;5077988;28;20188;-50
2021/10/10 04:07:19;;;;;;;22.92;16.50;;;1.20;99.90;;;;;;5070818;28;20238;-48
2021/10/10 04:09:44;;;;;;;23.65;15.60;;;1.20;99.90;;;;;;5071761;28;20615;-49
2021/10/10 04:12:10;;;;;;;26.10;15.90;;;1.20;99.90;;;;;;5091605;28;20176;-46
2021/10/10 04:14:36;;;;;;;21.00;16.40;;;1.20;99.90;;;;;;5077216;28;20201;-49
2021/10/10 04:17:02;;;;;;;21.27;15.30;;;1.20;99.90;;;;;;5071432;28;20185;-52
2021/10/10 04:19:27;;;;;;;21.03;16.10;;;1.20;99.90;;;;;;5069084;28;20448;-48
2021/10/10 04:21:53;;;;;;;21.40;16.20;;;1.20;99.90;;;;;;5085151;28;20874;-46
2021/10/10 04:24:19;;;;;;;21.07;15.73;;;1.20;99.90;;;;;;5079442;28;20186;-50
2021/10/10 04:26:44;;;;;;;21.27;15.47;;;1.20;99.90;;;;;;5084662;28;20185;-51
2021/10/10 04:29:10;;;;;;;23.53;15.87;;;1.10;99.90;;;;;;5081545;28;20898;-50
2021/10/10 04:31:35;;;;;;;22.40;16.53;;;1.20;99.90;;;;;;5083894;28;20717;-52
2021/10/10 04:34:01;;;;;;;20.40;16.20;;;1.10;99.90;;;;;;5075316;28;20529;-50
2021/10/10 04:36:27;;;;;;;19.50;15.70;;;1.10;99.90;;;;;;5069985;28;20185;-48
2021/10/10 04:38:52;;;;;;;21.87;16.37;;;1.10;99.90;;;;;;5064841;28;20644;-48
2021/10/10 04:41:18;;;;;;;22.70;15.70;;;1.10;99.90;;;;;;5065027;28;20189;-49
2021/10/10 04:43:44;;;;;;;21.90;15.37;;;1.10;99.90;;;;;;5065236;28;20221;-49
2021/10/10 04:46:09;;;;;;;19.90;15.17;;;1.10;99.90;;;;;;5066807;28;20462;-48
2021/10/10 04:48:35;;;;;;;21.13;15.17;;;1.10;99.90;;;;;;5063688;28;20201;-49
2021/10/10 04:51:00;;;;;;;21.77;15.60;;;1.20;99.90;;;;;;5065052;28;20182;-51
2021/10/10 04:53:26;;;;;;;21.27;15.63;;;1.10;99.90;;;;;;5070647;28;20185;-48
2021/10/10 04:55:51;;;;;;;19.97;15.07;;;1.00;99.90;;;;;;5071283;28;20185;-52
2021/10/10 04:58:17;;;;;;;21.57;15.50;;;0.90;99.90;;;;;;5090059;28;20213;-50
2021/10/10 05:00:42;;;;;;;22.80;15.23;;;0.90;99.90;;;;;;5073874;28;20252;-49
2021/10/10 05:03:09;;;;;;;21.43;15.30;;;0.80;99.90;;;;;;5070279;28;20185;-48
2021/10/10 05:05:35;;;;;;;20.92;15.48;;;0.80;99.90;;;;;;5067616;28;20177;-50
2021/10/10 05:08:00;;;;;;;22.53;16.00;;;0.80;99.90;;;;;;5071626;28;20217;-51
2021/10/10 05:10:26;;;;;;;19.43;15.13;;;0.80;99.90;;;;;;5072722;28;20436;-53
2021/10/10 05:12:52;;;;;;;21.43;16.13;;;0.80;99.90;;;;;;5070993;28;20228;-46
2021/10/10 05:15:17;;;;;;;20.40;15.13;;;0.80;99.90;;;;;;5078304;28;20501;-54
2021/10/10 05:17:43;;;;;;;22.33;15.67;;;0.80;99.90;;;;;;5069949;28;20435;-49
2021/10/10 05:20:09;;;;;;;20.57;15.60;;;0.70;99.90;;;;;;5073298;28;20196;-51
2021/10/10 05:22:34;;;;;;;21.10;16.10;;;0.70;99.90;;;;;;5073352;28;20197;-54
2021/10/10 05:25:00;;;;;;;20.73;16.10;;;0.70;99.90;;;;;;5070279;28;20591;-50
2021/10/10 05:27:26;;;;;;;23.35;16.58;;;0.70;99.90;;;;;;5074610;28;20736;-47
2021/10/10 05:29:52;;;;;;;18.77;15.40;;;0.70;99.90;;;;;;5066425;28;20261;-48
2021/10/10 05:32:18;;;;;;;21.43;15.60;;;0.70;99.90;;;;;;5068302;28;20246;-51
2021/10/10 05:34:44;;;;;;;19.85;15.75;;;0.70;99.90;;;;;;5085432;28;20403;-49
2021/10/10 05:37:09;;;;;;;21.10;15.20;;;0.80;99.90;;;;;;5077569;28;20739;-49
2021/10/10 05:39:35;;;;;;;24.77;15.57;;;0.80;99.90;;;;;;5071365;28;20181;-50
2021/10/10 05:42:01;;;;;;;19.13;15.20;;;0.80;99.90;;;;;;5069284;28;20312;-48
2021/10/10 05:44:27;;;;;;;21.70;15.90;;;0.80;99.90;;;;;;5070955;28;20476;-51
2021/10/10 05:46:52;;;;;;;20.00;15.17;;;0.80;99.90;;;;;;5068863;28;20459;-50
2021/10/10 05:49:18;;;;;;;20.37;16.40;;;0.80;99.90;;;;;;5069734;28;20205;-51
2021/10/10 05:51:46;;;;;;;20.07;15.90;;;0.80;99.90;;;;;;5080893;28;20644;-47
2021/10/10 05:54:14;;;;;;;22.85;18.33;;;0.80;99.90;;;;;;5069336;28;20636;-49
2021/10/10 05:56:40;;;;;;;22.83;17.20;;;0.80;99.90;;;;;;5066091;28;20565;-52
2021/10/10 05:59:10;;;;;;;23.63;17.00;;;0.80;99.90;;;;;;5064785;28;20185;-48
2021/10/10 06:01:36;;;;;;;24.08;16.40;;;0.80;99.90;;;;;;5064150;28;20185;-51
2021/10/10 06:04:05;;;;;;;18.97;15.53;;;1.00;99.90;;;;;;5066010;28;20183;-48
2021/10/10 06:06:31;;;;;;;21.15;16.20;;;1.00;99.90;;;;;;5064301;28;20573;-51
2021/10/10 06:08:56;;;;;;;25.90;17.03;;;1.20;99.90;;;;;;5063240;28;20261;-52
2021/10/10 06:11:22;;;;;;;23.97;17.63;;;1.20;99.90;;;;;;5062137;28;20432;-53
2021/10/10 06:13:48;;;;;;;23.58;16.67;;;1.20;99.90;;;;;;5059396;28;20177;-53
2021/10/10 06:16:15;;;;;;;21.30;16.23;;;1.20;99.90;;;;;;5065867;28;20178;-51
2021/10/10 06:18:41;;;;;;;22.73;16.70;;;1.20;99.90;;;;;;5063948;28;20297;-49
2021/10/10 06:21:06;;;;;;;21.33;15.17;;;1.40;99.90;;;;;;5067230;28;20292;-52
2021/10/10 06:23:32;;;;;;;27.20;16.17;;;1.40;99.90;;;;;;5059849;28;21279;-48
2021/10/10 06:25:58;;;;;;;19.67;15.60;;;1.40;99.90;;;;;;5062540;28;20185;-50
2021/10/10 06:28:23;;;;;;;21.83;16.10;;;1.40;99.90;;;;;;5066975;28;20580;-47
2021/10/10 06:30:49;;;;;;;21.63;15.50;;;1.40;99.90;;;;;;5073512;28;20471;-49
2021/10/10 06:33:15;;;;;;;19.00;15.17;;;1.40;99.90;;;;;;5074993;28;20260;-52
2021/10/10 06:35:40;;;;;;;21.30;15.73;;;1.50;99.90;;;;;;5072141;28;20428;-49
2021/10/10 06:38:06;;;;;;;22.67;15.13;;;1.50;99.90;;;;;;5054486;28;20193;-49
2021/10/10 06:40:32;;;;;;;24.23;16.57;;;1.50;99.90;;;;;;5064369;28;20216;-49
2021/10/10 06:42:57;;;;;;;21.00;16.20;;;1.60;99.90;;;;;;5054105;28;20248;-51
2021/10/10 06:45:23;;;;;;;24.60;18.87;;;1.60;99.90;;;;;;5062511;28;20190;-49
2021/10/10 06:47:48;;;;;;;22.77;17.00;;;1.60;99.90;;;;;;5086927;28;20200;-47
2021/10/10 06:50:14;;;;;;;27.97;20.93;;;1.70;99.90;;;;;;5066270;28;20640;-47
2021/10/10 06:52:39;;;;;;;22.33;16.13;;;1.80;99.90;;;;;;5074426;28;20185;-50
2021/10/10 06:55:05;;;;;;;22.77;16.67;;;1.80;99.90;;;;;;5074685;28;20550;-53
2021/10/10 06:57:32;;;;;;;22.90;17.03;;;1.90;99.90;;;;;;5058943;28;20201;-54
2021/10/10 06:59:59;;;;;;;19.30;15.00;;;1.90;99.90;;;;;;5056054;28;20181;-50
2021/10/10 07:02:25;;;;;;;21.58;16.75;;;1.90;99.90;;;;;;5060960;28;20655;-49
2021/10/10 07:04:51;;;;;;;24.83;17.90;;;2.00;99.90;;;;;;5059097;28;20170;-53
2021/10/10 07:07:19;;;;;;;20.35;15.63;;;2.00;99.90;;;;;;5060476;28;20233;-50
2021/10/10 07:09:46;;;;;;;24.40;16.92;;;2.10;99.90;;;;;;5059199;28;20285;-54
2021/10/10 07:12:13;;;;;;;22.70;16.63;;;2.20;99.90;;;;;;5059740;28;20217;-51
2021/10/10 07:14:38;;;;;;;22.20;16.47;;;2.20;99.90;;;;;;5062945;28;20652;-49
2021/10/10 07:17:04;;;;;;;25.50;19.27;;;2.30;99.90;;;;;;5058020;28;20182;-52
2021/10/10 07:19:39;;;;;;;24.10;18.00;;;2.40;99.90;;;;;;5062984;28;20189;-49
2021/10/10 07:27:22;;;;;;;20.23;15.00;;;2.80;99.90;;;;;;5069511;28;20756;-51
2021/10/10 07:29:48;;;;;;;20.17;15.20;;;2.80;99.90;;;;;;5068070;28;20201;-48
2021/10/10 07:32:14;;;;;;;22.20;15.27;;;2.90;99.90;;;;;;5075724;28;20965;-49
2021/10/10 07:34:39;;;;;;;20.50;15.40;;;3.00;99.90;;;;;;5075097;28;20260;-47
2021/10/10 07:37:05;;;;;;;20.13;15.00;;;3.20;99.90;;;;;;5077663;28;20178;-51
2021/10/10 07:39:31;;;;;;;18.30;14.60;;;3.40;99.90;;;;;;5072189;28;21027;-48
2021/10/10 07:41:56;;;;;;;19.07;14.30;;;3.50;99.90;;;;;;5048784;28;20181;-49
2021/10/10 07:44:24;;;;;;;20.00;15.40;;;3.70;99.90;;;;;;5066002;28;20798;-48
2021/10/10 07:46:56;;;;;;;19.30;14.35;;;3.90;99.90;;;;;;5067226;28;20215;-51
2021/10/10 07:49:22;;;;;;;17.48;12.93;;;4.10;99.90;;;;;;5061131;28;20173;-48
2021/10/10 07:51:48;;;;;;;16.93;12.93;;;4.40;99.90;;;;;;5070040;28;20636;-48
2021/10/10 07:54:13;;;;;;;16.70;12.43;;;4.70;99.90;;;;;;5070757;28;21387;-53
2021/10/10 07:56:40;;;;;;;15.63;11.63;;;5.10;99.90;;;;;;5073010;28;20192;-50
2021/10/10 07:59:06;;;;;;;15.70;12.52;;;5.50;99.90;;;;;;5073507;28;20605;-52
2021/10/10 08:01:31;;;;;;;13.53;11.00;;;5.90;99.90;;;;;;5064045;28;20181;-50
2021/10/10 08:03:57;;;;;;;17.60;12.00;;;6.40;99.90;;;;;;5057728;28;20198;-50
2021/10/10 08:06:23;;;;;;;15.70;12.40;;;7.10;99.90;;;;;;5065887;28;20671;-49
2021/10/10 08:08:48;;;;;;;13.10;10.70;;;7.80;99.90;;;;;;5068114;28;20910;-52
2021/10/10 08:11:14;;;;;;;13.20;11.43;;;8.70;99.90;;;;;;5068419;28;20181;-49
2021/10/10 08:13:40;;;;;;;13.03;11.80;;;9.40;99.90;;;;;;5076118;28;20260;-50
2021/10/10 08:16:05;;;;;;;12.53;11.30;;;10.20;99.90;;;;;;5071990;28;20184;-51
2021/10/10 08:18:31;;;;;;;13.83;12.50;;;11.10;97.40;;;;;;5075790;28;20207;-47
2021/10/10 08:20:56;;;;;;;18.60;16.80;;;11.90;94.40;;;;;;5060183;28;20197;-51
2021/10/10 08:23:22;;;;;;;14.70;13.20;;;12.40;92.40;;;;;;5063297;28;20189;-50
2021/10/10 08:25:48;;;;;;;14.00;12.43;;;12.90;91.20;;;;;;5068308;28;20235;-51
2021/10/10 08:28:13;;;;;;;15.20;13.80;;;13.50;89.00;;;;;;5066003;28;20451;-50
2021/10/10 08:30:39;;;;;;;14.10;12.77;;;14.00;81.40;;;;;;5068780;28;20256;-52
2021/10/10 08:33:05;;;;;;;14.50;13.20;;;14.00;80.70;;;;;;5069206;28;20315;-53
2021/10/10 08:35:30;;;;;;;15.40;12.73;;;14.50;77.90;;;;;;5062520;28;20178;-50
2021/10/10 08:37:56;;;;;;;14.80;13.40;;;14.70;75.00;;;;;;5061012;28;20828;-51
2021/10/10 08:40:21;;;;;;;15.00;13.70;;;14.90;71.80;;;;;;5067764;28;20652;-49
2021/10/10 08:42:54;;;;;;;14.43;13.23;;;14.90;72.50;;;;;;5055357;28;20182;-46
2021/10/10 08:45:24;;;;;;;13.87;12.67;;;15.40;70.00;;;;;;5052263;28;20183;-51
2021/10/10 08:47:51;;;;;;;14.93;13.63;;;16.20;63.90;;;;;;5063032;28;20965;-52
2021/10/10 08:50:19;;;;;;;15.07;13.57;;;16.30;63.30;;;;;;5068108;28;20441;-49
2021/10/10 08:52:46;;;;;;;14.47;13.17;;;17.00;61.90;;;;;;5064360;28;20488;-52
2021/10/10 08:55:13;;;;;;;14.97;13.63;;;17.80;58.70;;;;;;5067619;28;21187;-53
2021/10/10 08:57:40;;;;;;;14.70;13.20;;;17.40;55.30;;;;;;5070994;28;20434;-51
2021/10/10 09:00:10;;;;;;;15.30;14.00;;;17.40;54.60;;;;;;5069318;28;20413;-54
2021/10/10 09:02:38;;;;;;;14.03;12.73;;;17.70;55.10;;;;;;5056037;28;20424;-50
2021/10/10 09:05:10;;;;;;;14.40;13.10;;;17.80;54.40;;;;;;5060754;28;20450;-51
2021/10/10 09:07:36;;;;;;;14.10;12.83;;;18.50;53.20;;;;;;5070363;28;20957;-52
2021/10/10 09:10:21;;;;;;;14.63;13.50;;;18.90;50.60;;;;;;5066644;28;20420;-52
2021/10/10 09:12:47;;;;;;;13.50;12.30;;;18.70;50.80;;;;;;5063832;28;20439;-58
2021/10/10 09:15:17;;;;;;;13.70;12.50;;;19.40;50.00;;;;;;5066635;28;20514;-58
2021/10/10 09:17:56;;;;;;;14.57;13.27;;;19.70;49.30;;;;;;5057502;28;20480;-54
2021/10/10 09:20:26;;;;;;;15.03;13.80;;;20.20;47.80;;;;;;5063526;28;20455;-55
2021/10/10 09:22:51;;;;;;;14.30;13.10;;;21.00;44.50;;;;;;5076007;28;20405;-54
2021/10/10 09:25:17;;;;;;;14.77;13.60;;;21.00;44.40;;;;;;5073767;28;20470;-56
2021/10/10 09:27:43;;;;;;;14.30;13.00;;;21.30;43.20;;;;;;5069811;28;20301;-55
2021/10/10 09:30:09;;;;;;;14.70;13.40;;;20.50;44.80;;;;;;5067876;28;20501;-55
2021/10/10 09:32:35;;;;;;;13.27;12.13;;;21.10;42.40;;;;;;5057145;28;20201;-55
2021/10/10 09:35:04;;;;;;;15.17;13.97;;;21.60;42.00;;;;;;5053150;28;20293;-53
2021/10/10 09:37:48;;;;;;;13.40;12.20;;;21.60;39.60;;;;;;5049560;28;20426;-53
2021/10/10 09:40:29;;;;;;;13.90;12.80;;;21.90;39.00;;;;;;5061499;28;20432;-55
2021/10/10 09:43:01;;;;;;;13.93;12.83;;;22.20;38.00;;;;;;5062891;28;22242;-53
2021/10/10 09:45:31;;;;;;;13.70;12.50;;;22.30;38.10;;;;;;5061817;28;20427;-54
2021/10/10 09:47:59;;;;;;;13.13;12.20;;;23.10;37.50;;;;;;5066196;28;21746;-55
2021/10/10 09:50:27;;;;;;;12.30;11.40;;;23.50;34.50;;;;;;5067301;28;20553;-56
2021/10/10 09:53:06;;;;;;;13.53;12.50;;;22.90;34.10;;;;;;5066833;28;21153;-56
2021/10/10 09:55:34;;;;;;;14.37;13.27;;;23.40;31.90;;;;;;5076589;28;20393;-53
2021/10/10 09:58:00;;;;;;;14.50;13.13;;;23.50;32.60;;;;;;5075038;28;20432;-53
2021/10/10 10:00:34;;;;;;;14.20;13.10;;;22.40;32.30;;;;;;5075640;28;20910;-54
2021/10/10 10:03:10;;;;;;;13.67;12.67;;;22.10;32.80;;;;;;5066941;28;20212;-55
2021/10/10 10:05:37;;;;;;;12.63;11.53;;;21.80;34.50;;;;;;5072930;28;20420;-56
2021/10/10 10:08:04;;;;;;;13.07;11.87;;;22.80;33.00;;;;;;5069842;28;21316;-51
2021/10/10 10:10:31;;;;;;;13.23;12.23;;;23.20;31.10;;;;;;5077487;28;20418;-54
2021/10/10 10:12:59;;;;;;;13.47;12.47;;;23.90;29.60;;;;;;5072864;28;20438;-52
2021/10/10 10:15:29;;;;;;;14.33;13.00;;;24.40;29.90;;;;;;5069069;28;20418;-54
2021/10/10 10:17:57;;;;;;;12.57;11.67;;;25.00;29.00;;;;;;5076380;28;20466;-54
2021/10/10 10:20:24;;;;;;;12.67;11.67;;;25.50;26.40;;;;;;5055004;28;20433;-50
2021/10/10 10:22:54;;;;;;;13.50;12.40;;;25.40;26.70;;;;;;5067559;28;20899;-55
2021/10/10 10:25:21;;;;;;;14.43;13.07;;;25.30;25.20;;;;;;5080398;28;20451;-56
2021/10/10 10:27:49;;;;;;;13.10;12.10;;;24.60;26.00;;;;;;5066965;28;20457;-56
2021/10/10 10:30:16;;;;;;;13.33;12.23;;;24.40;26.90;;;;;;5064629;28;20823;-53
2021/10/10 10:32:42;;;;;;;12.70;11.60;;;24.60;26.90;;;;;;5052362;28;20438;-52
2021/10/10 10:35:12;;;;;;;13.00;11.90;;;24.80;25.30;;;;;;5060997;28;20764;-55
2021/10/10 10:37:44;;;;;;;14.47;13.20;;;25.10;25.40;;;;;;5058023;28;20188;-55
2021/10/10 10:40:18;;;;;;;13.40;12.00;;;25.00;24.90;;;;;;5052285;28;20953;-58
2021/10/10 10:42:49;;;;;;;12.93;11.90;;;25.30;25.50;;;;;;5050352;28;20472;-56
2021/10/10 10:45:36;;;;;;;13.60;12.60;;;25.40;24.80;;;;;;5053513;28;20834;-57
2021/10/10 10:48:05;;;;;;;14.37;13.17;;;26.10;23.50;;;;;;5062812;28;20465;-58
2021/10/10 10:50:43;;;;;;;14.13;13.03;;;24.90;23.90;;;;;;5065507;28;20425;-57
2021/10/10 10:53:13;;;;;;;14.20;13.00;;;25.40;24.20;;;;;;5065142;28;20517;-59
2021/10/10 10:55:53;;;;;;;13.60;12.50;;;25.60;24.10;;;;;;5067206;28;20414;-56
2021/10/10 10:58:18;;;;;;;13.67;12.60;;;25.60;24.70;;;;;;5063724;28;20435;-57
2021/10/10 11:00:49;;;;;;;13.80;12.53;;;25.40;23.60;;;;;;5067130;28;20427;-57
2021/10/10 11:03:14;;;;;;;13.83;12.83;;;26.00;24.20;;;;;;5069270;28;20205;-58
2021/10/10 11:05:52;;;;;;;13.03;12.00;;;26.50;21.80;;;;;;5061495;28;20535;-58
2021/10/10 11:08:17;;;;;;;13.90;12.80;;;26.20;21.10;;;;;;5064744;28;20203;-57
2021/10/10 11:11:07;;;;;;;15.53;13.83;;;25.90;22.00;;;;;;5057861;28;20446;-57
2021/10/10 11:13:35;;;;;;;13.83;12.60;;;26.00;22.30;;;;;;5062957;28;20659;-57
2021/10/10 11:16:14;;;;;;;14.00;13.00;;;25.60;21.00;;;;;;5069848;28;20964;-57
2021/10/10 11:18:51;;;;;;;13.67;12.57;;;25.40;23.10;;;;;;5069167;28;20932;-58
2021/10/10 11:21:19;;;;;;;14.47;13.27;;;25.50;21.90;;;;;;5068883;28;20835;-57
2021/10/10 11:23:48;;;;;;;13.23;12.17;;;25.60;21.50;;;;;;5072121;28;20451;-56
2021/10/10 11:26:14;;;;;;;11.97;11.13;;;25.90;20.50;;;;;;5073642;28;20447;-57
2021/10/10 11:28:48;;;;;;;12.10;11.20;;;25.90;20.70;;;;;;5077345;28;20459;-59
2021/10/10 11:31:26;;;;;;;12.93;11.80;;;26.20;21.10;;;;;;5078312;28;20675;-63
2021/10/10 11:34:03;;;;;;;12.80;11.67;;;26.80;20.60;;;;;;5068272;28;20424;-56
2021/10/10 11:36:51;;;;;;;11.70;10.83;;;26.40;21.00;;;;;;5056501;28;20431;-58
2021/10/10 11:39:22;;;;;;;12.60;11.60;;;26.60;21.00;;;;;;5054514;28;20424;-58
2021/10/10 11:41:53;;;;;;;13.13;11.97;;;26.60;20.30;;;;;;5066629;28;20432;-60
2021/10/10 11:44:36;;;;;;;13.13;12.13;;;26.30;19.50;;;;;;5067707;28;20536;-58
2021/10/10 11:47:04;;;;;;;14.23;13.10;;;26.20;20.40;;;;;;5070972;28;20426;-57
2021/10/10 11:49:40;;;;;;;13.43;12.30;;;26.50;20.10;;;;;;5065348;28;20433;-58
2021/10/10 11:54:46;;;;;;;12.67;11.63;;;26.00;20.30;;;;;;5059681;28;20430;-56
2021/10/10 11:57:13;;;;;;;11.70;10.70;;;26.10;20.00;;;;;;5067041;28;20427;-58
2021/10/10 11:59:54;;;;;;;11.80;10.90;;;26.30;21.10;;;;;;5068271;28;20934;-58
2021/10/10 12:02:21;;;;;;;12.90;11.90;;;26.70;20.10;;;;;;5063704;28;20435;-57
2021/10/10 12:04:47;;;;;;;12.47;11.43;;;26.60;20.10;;;;;;5067615;28;20487;-59
2021/10/10 12:07:13;;;;;;;12.17;11.27;;;26.10;20.10;;;;;;5066808;28;20479;-58
2021/10/10 12:09:49;;;;;;;10.63;9.83;;;26.10;20.30;;;;;;5074563;28;20435;-58
2021/10/10 12:12:16;;;;;;;12.13;11.10;;;26.60;20.50;;;;;;5063149;28;20544;-58
2021/10/10 12:14:43;;;;;;;11.50;10.60;;;26.80;20.30;;;;;;5068863;28;20477;-58
2021/10/10 12:17:09;;;;;;;11.73;10.93;;;26.70;20.40;;;;;;5067611;28;20471;-57
2021/10/10 12:19:43;;;;;;;11.87;10.90;;;26.60;20.50;;;;;;5068536;28;20464;-56
2021/10/10 12:22:08;;;;;;;13.03;11.93;;;26.80;19.60;;;;;;5069339;28;20179;-54
2021/10/10 12:24:44;;;;;;;11.93;10.80;;;26.90;19.50;;;;;;5064130;28;20430;-56
2021/10/10 12:27:10;;;;;;;12.30;11.40;;;26.40;20.00;;;;;;5061049;28;20173;-57
2021/10/10 12:29:43;;;;;;;10.57;9.77;;;26.40;20.00;;;;;;5075160;28;20427;-57
2021/10/10 12:32:24;;;;;;;12.87;11.90;;;26.70;19.30;;;;;;5069672;28;20227;-57
2021/10/10 12:35:09;;;;;;;12.70;11.70;;;26.80;19.50;;;;;;5069798;28;20412;-57
2021/10/10 12:37:35;;;;;;;11.90;11.00;;;27.10;19.40;;;;;;5070330;28;20419;-56
2021/10/10 12:40:01;;;;;;;12.57;11.60;;;27.40;18.90;;;;;;5066051;28;20530;-59
2021/10/10 12:42:48;;;;;;;12.00;11.13;;;27.50;19.30;;;;;;5067517;28;20426;-55
2021/10/10 12:45:51;;;;;;;11.20;10.40;;;27.20;18.80;;;;;;5067895;28;20197;-56